Time,TemperatureF,DewpointF,PressureIn,WindDirection,WindDirectionDegrees,WindSpeedMPH,WindSpeedGustMPH,Humidity,HourlyPrecipIn,Conditions,Clouds,dailyrainin,SoftwareType,DateUTC
2013-07-05 00:00:00,79.2,54.8,29.58,SSE,161,0.0,0.0,43,0.00,,,0.01,Wunderground v.1.15,2013-07-05 06:00:00,
2013-07-05 00:05:00,79.2,55.4,29.56,SSE,160,0.0,0.0,44,0.00,,,0.00,Wunderground v.1.15,2013-07-05 06:05:00,
2013-07-05 00:15:00,78.9,55.1,29.56,SSE,161,0.0,0.0,44,0.00,,,0.00,Wunderground v.1.15,2013-07-05 06:15:00,
2013-07-05 00:20:00,78.7,55.6,29.56,SSE,161,0.0,0.0,45,0.00,,,0.00,Wunderground v.1.15,2013-07-05 06:20:00,
2013-07-05 00:25:00,78.7,56.2,29.56,SSE,161,0.0,0.0,46,0.00,,,0.00,Wunderground v.1.15,2013-07-05 06:25:00,
2013-07-05 00:30:00,78.5,56.0,29.56,SSE,160,0.0,0.0,46,0.00,,,0.00,Wunderground v.1.15,2013-07-05 06:30:00,
2013-07-05 00:35:00,78.3,56.4,29.57,SSE,161,0.0,0.0,47,0.00,,,0.00,Wunderground v.1.15,2013-07-05 06:35:00,
2013-07-05 00:40:00,78.1,55.6,29.57,SSE,160,0.0,0.0,46,0.00,,,0.00,Wunderground v.1.15,2013-07-05 06:40:00,
2013-07-05 00:50:00,77.7,55.3,29.57,SSE,160,0.0,0.0,46,0.00,,,0.00,Wunderground v.1.15,2013-07-05 06:50:00,
2013-07-05 00:55:00,77.5,55.7,29.57,SSE,161,0.0,0.0,47,0.00,,,0.00,Wunderground v.1.15,2013-07-05 06:55:00,
2013-07-05 01:05:00,77.1,55.9,29.57,SSE,161,0.0,0.0,48,0.00,,,0.00,Wunderground v.1.15,2013-07-05 07:05:00,
2013-07-05 01:15:00,76.9,55.7,29.57,SSE,160,0.0,0.0,48,0.00,,,0.00,Wunderground v.1.15,2013-07-05 07:15:00,
2013-07-05 01:25:00,76.7,55.5,29.57,SSE,161,0.0,0.0,48,0.00,,,0.00,Wunderground v.1.15,2013-07-05 07:25:00,
2013-07-05 01:30:00,76.5,55.3,29.57,SSE,160,0.0,0.0,48,0.00,,,0.00,Wunderground v.1.15,2013-07-05 07:30:00,
2013-07-05 01:35:00,76.4,55.3,29.57,SSE,161,0.0,0.0,48,0.00,,,0.00,Wunderground v.1.15,2013-07-05 07:35:00,
2013-07-05 01:40:00,76.2,55.6,29.56,SSE,161,0.0,0.0,49,0.00,,,0.00,Wunderground v.1.15,2013-07-05 07:40:00,
2013-07-05 01:50:00,75.9,56.5,29.56,SSE,161,0.0,0.0,51,0.00,,,0.00,Wunderground v.1.15,2013-07-05 07:50:00,
2013-07-05 01:55:00,75.8,56.4,29.56,SSE,161,0.0,0.0,51,0.00,,,0.00,Wunderground v.1.15,2013-07-05 07:55:00,
2013-07-05 02:00:00,75.6,55.6,29.56,SSE,161,0.0,0.0,50,0.00,,,0.00,Wunderground v.1.15,2013-07-05 08:00:00,
2013-07-05 02:05:00,75.3,55.9,29.55,SSE,161,0.0,0.0,51,0.00,,,0.00,Wunderground v.1.15,2013-07-05 08:05:00,
2013-07-05 02:15:00,74.9,56.1,29.55,SSE,161,0.0,0.0,52,0.00,,,0.00,Wunderground v.1.15,2013-07-05 08:15:00,
2013-07-05 02:20:00,74.7,55.9,29.56,SSE,160,0.0,0.0,52,0.00,,,0.00,Wunderground v.1.15,2013-07-05 08:20:00,
2013-07-05 02:25:00,74.4,56.2,29.56,SSE,161,0.0,0.0,53,0.00,,,0.00,Wunderground v.1.15,2013-07-05 08:25:00,
2013-07-05 02:30:00,74.2,56.0,29.57,SSE,161,0.0,0.0,53,0.00,,,0.00,Wunderground v.1.15,2013-07-05 08:30:00,
2013-07-05 02:35:00,74.0,55.8,29.57,SSE,160,0.0,0.0,53,0.00,,,0.00,Wunderground v.1.15,2013-07-05 08:35:00,
2013-07-05 02:45:00,73.5,55.3,29.57,SSE,161,0.0,0.0,53,0.00,,,0.00,Wunderground v.1.15,2013-07-05 08:45:00,
2013-07-05 02:50:00,73.3,55.1,29.57,SSE,160,0.0,0.0,53,0.00,,,0.00,Wunderground v.1.15,2013-07-05 08:50:00,
2013-07-05 03:00:00,73.0,54.9,29.57,SSE,160,0.0,0.0,53,0.00,,,0.00,Wunderground v.1.15,2013-07-05 09:00:00,
2013-07-05 03:06:00,72.9,54.8,29.57,SSE,161,0.0,0.0,53,0.00,,,0.00,Wunderground v.1.15,2013-07-05 09:06:00,
2013-07-05 03:15:00,72.6,55.0,29.57,SSE,161,0.0,0.0,54,0.00,,,0.00,Wunderground v.1.15,2013-07-05 09:15:00,
2013-07-05 03:20:00,72.4,54.8,29.56,SSE,161,0.0,0.0,54,0.00,,,0.00,Wunderground v.1.15,2013-07-05 09:20:00,
2013-07-05 03:30:00,72.1,54.0,29.56,SSE,160,0.0,0.0,53,0.00,,,0.00,Wunderground v.1.15,2013-07-05 09:30:00,
2013-07-05 03:36:00,71.9,54.3,29.56,SSE,161,0.0,0.0,54,0.00,,,0.00,Wunderground v.1.15,2013-07-05 09:36:00,
2013-07-05 03:45:00,71.7,53.7,29.56,SSE,161,0.0,0.0,53,0.00,,,0.00,Wunderground v.1.15,2013-07-05 09:45:00,
2013-07-05 03:50:00,71.6,53.0,29.56,SSE,161,0.0,0.0,52,0.00,,,0.00,Wunderground v.1.15,2013-07-05 09:50:00,
2013-07-05 03:55:00,71.6,53.0,29.55,SSE,160,0.0,0.0,52,0.00,,,0.00,Wunderground v.1.15,2013-07-05 09:55:00,
2013-07-05 04:06:00,71.5,52.9,29.56,SSE,160,0.0,0.0,52,0.00,,,0.00,Wunderground v.1.15,2013-07-05 10:06:00,
2013-07-05 04:15:00,71.4,52.9,29.57,SSE,161,0.0,0.0,52,0.00,,,0.00,Wunderground v.1.15,2013-07-05 10:15:00,
2013-07-05 04:20:00,71.3,52.8,29.57,SSE,161,0.0,0.0,52,0.00,,,0.00,Wunderground v.1.15,2013-07-05 10:20:00,
2013-07-05 04:25:00,71.2,52.7,29.57,SSE,160,0.0,0.0,52,0.00,,,0.00,Wunderground v.1.15,2013-07-05 10:25:00,
2013-07-05 04:30:00,71.2,52.7,29.57,SSE,160,0.0,0.0,52,0.00,,,0.00,Wunderground v.1.15,2013-07-05 10:30:00,
2013-07-05 04:35:00,71.1,53.1,29.58,SSE,160,0.0,0.0,53,0.00,,,0.00,Wunderground v.1.15,2013-07-05 10:35:00,
2013-07-05 04:41:00,71.0,53.0,29.58,SSE,161,0.0,0.0,53,0.00,,,0.00,Wunderground v.1.15,2013-07-05 10:41:00,
2013-07-05 04:50:00,70.9,52.9,29.57,SSE,161,0.0,0.0,53,0.00,,,0.00,Wunderground v.1.15,2013-07-05 10:50:00,
2013-07-05 05:06:00,70.5,53.1,29.58,SSE,160,0.0,0.0,54,0.00,,,0.00,Wunderground v.1.15,2013-07-05 11:06:00,
2013-07-05 05:16:00,70.2,52.8,29.59,SSE,161,0.0,0.0,54,0.00,,,0.00,Wunderground v.1.15,2013-07-05 11:16:00,
2013-07-05 05:26:00,69.9,53.5,29.59,SSE,161,0.0,0.0,56,0.00,,,0.00,Wunderground v.1.15,2013-07-05 11:26:00,
2013-07-05 05:46:00,69.1,52.7,29.60,SSE,161,0.0,0.0,56,0.00,,,0.00,Wunderground v.1.15,2013-07-05 11:46:00,
2013-07-05 05:51:00,69.0,53.1,29.60,SSE,161,0.0,0.0,57,0.00,,,0.00,Wunderground v.1.15,2013-07-05 11:51:00,
2013-07-05 05:56:00,68.8,53.4,29.60,SSE,161,0.0,0.0,58,0.00,,,0.00,Wunderground v.1.15,2013-07-05 11:56:00,
2013-07-05 06:07:00,68.4,53.0,29.63,SSE,161,0.0,0.0,58,0.00,,,0.00,Wunderground v.1.15,2013-07-05 12:07:00,
2013-07-05 06:16:00,68.1,52.8,29.63,SSE,161,0.0,0.0,58,0.00,,,0.00,Wunderground v.1.15,2013-07-05 12:16:00,
2013-07-05 06:26:00,67.9,53.0,29.63,SSE,160,0.0,0.0,59,0.00,,,0.00,Wunderground v.1.15,2013-07-05 12:26:00,
2013-07-05 06:36:00,67.8,52.9,29.63,SSE,161,0.0,0.0,59,0.00,,,0.00,Wunderground v.1.15,2013-07-05 12:36:00,
2013-07-05 06:41:00,67.7,52.9,29.63,SSE,161,0.0,0.0,59,0.00,,,0.00,Wunderground v.1.15,2013-07-05 12:41:00,
2013-07-05 06:46:00,67.7,53.3,29.64,SSE,161,0.0,0.0,60,0.00,,,0.00,Wunderground v.1.15,2013-07-05 12:46:00,
2013-07-05 06:56:00,67.8,53.4,29.64,SSE,161,0.0,0.0,60,0.00,,,0.00,Wunderground v.1.15,2013-07-05 12:56:00,
2013-07-05 07:01:00,67.9,54.0,29.65,SSE,161,0.0,0.0,61,0.00,,,0.00,Wunderground v.1.15,2013-07-05 13:01:00,
2013-07-05 07:06:00,68.0,54.5,29.65,SSE,160,0.0,0.0,62,0.00,,,0.00,Wunderground v.1.15,2013-07-05 13:06:00,
2013-07-05 07:16:00,68.5,55.0,29.65,SSE,160,0.0,0.0,62,0.00,,,0.00,Wunderground v.1.15,2013-07-05 13:16:00,
2013-07-05 07:21:00,68.9,55.3,29.65,SSE,161,0.0,0.0,62,0.00,,,0.00,Wunderground v.1.15,2013-07-05 13:21:00,
2013-07-05 07:26:00,69.3,54.8,29.65,SSE,161,0.0,0.0,60,0.00,,,0.00,Wunderground v.1.15,2013-07-05 13:26:00,
2013-07-05 07:31:00,69.9,54.4,29.65,SSE,161,0.0,0.0,58,0.00,,,0.00,Wunderground v.1.15,2013-07-05 13:31:00,
2013-07-05 07:41:00,71.2,54.7,29.65,SSE,160,0.0,0.0,56,0.00,,,0.00,Wunderground v.1.15,2013-07-05 13:41:00,
2013-07-05 07:51:00,72.6,57.0,29.64,SSE,160,0.0,0.0,58,0.00,,,0.00,Wunderground v.1.15,2013-07-05 13:51:00,
2013-07-05 08:01:00,74.1,56.4,29.64,SSE,160,0.0,0.0,54,0.00,,,0.00,Wunderground v.1.15,2013-07-05 14:01:00,
2013-07-05 08:11:00,75.5,56.6,29.63,SSE,161,0.0,0.0,52,0.00,,,0.00,Wunderground v.1.15,2013-07-05 14:11:00,
2013-07-05 08:16:00,76.3,56.3,29.64,SSE,160,0.0,0.0,50,0.00,,,0.00,Wunderground v.1.15,2013-07-05 14:16:00,
2013-07-05 08:21:00,77.0,55.8,29.64,SSW,206,0.0,0.0,48,0.00,,,0.00,Wunderground v.1.15,2013-07-05 14:21:00,
2013-07-05 08:31:00,78.6,56.7,29.62,SE,133,0.0,0.0,47,0.00,,,0.00,Wunderground v.1.15,2013-07-05 14:31:00,
2013-07-05 08:36:00,79.2,56.0,29.63,SE,133,0.0,0.0,45,0.00,,,0.00,Wunderground v.1.15,2013-07-05 14:36:00,
2013-07-05 08:41:00,79.8,57.2,29.62,SE,132,0.0,0.0,46,0.00,,,0.00,Wunderground v.1.15,2013-07-05 14:41:00,
2013-07-05 08:46:00,80.0,56.1,29.62,ESE,110,0.0,0.0,44,0.00,,,0.00,Wunderground v.1.15,2013-07-05 14:46:00,
2013-07-05 08:56:00,80.5,56.6,29.62,East,94,0.0,0.0,44,0.00,,,0.00,Wunderground v.1.15,2013-07-05 14:56:00,
2013-07-05 09:01:00,80.8,58.7,29.63,East,94,0.0,0.0,47,0.00,,,0.00,Wunderground v.1.15,2013-07-05 15:01:00,
2013-07-05 09:11:00,81.1,57.1,29.63,NW,313,0.0,0.0,44,0.00,,,0.00,Wunderground v.1.15,2013-07-05 15:11:00,
2013-07-05 09:16:00,81.2,57.8,29.63,NW,311,0.0,1.0,45,0.00,,,0.00,Wunderground v.1.15,2013-07-05 15:16:00,
2013-07-05 09:21:00,81.4,56.8,29.63,NW,313,0.0,0.0,43,0.00,,,0.00,Wunderground v.1.15,2013-07-05 15:21:00,
2013-07-05 09:26:00,81.8,57.1,29.62,NW,313,0.0,0.0,43,0.00,,,0.00,Wunderground v.1.15,2013-07-05 15:26:00,
2013-07-05 09:31:00,82.3,59.4,29.62,North,5,0.0,0.0,46,0.00,,,0.00,Wunderground v.1.15,2013-07-05 15:31:00,
2013-07-05 09:41:00,82.8,58.0,29.62,NNW,330,0.0,0.0,43,0.00,,,0.00,Wunderground v.1.15,2013-07-05 15:41:00,
2013-07-05 09:46:00,83.1,58.3,29.62,NNW,331,0.0,0.0,43,0.00,,,0.00,Wunderground v.1.15,2013-07-05 15:46:00,
2013-07-05 09:51:00,83.6,59.4,29.61,NNW,330,0.0,0.0,44,0.00,,,0.00,Wunderground v.1.15,2013-07-05 15:51:00,
2013-07-05 10:01:00,84.6,59.0,29.62,NNW,338,0.0,0.0,42,0.00,,,0.00,Wunderground v.1.15,2013-07-05 16:01:00,
2013-07-05 10:06:00,85.0,58.0,29.62,WNW,289,0.0,1.0,40,0.00,,,0.00,Wunderground v.1.15,2013-07-05 16:06:00,
2013-07-05 10:16:00,85.9,58.1,29.61,NW,321,0.0,0.0,39,0.00,,,0.00,Wunderground v.1.15,2013-07-05 16:16:00,
2013-07-05 10:21:00,86.3,56.2,29.62,NW,321,0.0,0.0,36,0.00,,,0.00,Wunderground v.1.15,2013-07-05 16:21:00,
2013-07-05 10:26:00,87.1,57.7,29.61,NW,321,0.0,0.0,37,0.00,,,0.00,Wunderground v.1.15,2013-07-05 16:26:00,
2013-07-05 10:31:00,87.7,56.7,29.61,North,355,0.0,0.0,35,0.00,,,0.00,Wunderground v.1.15,2013-07-05 16:31:00,
2013-07-05 10:36:00,88.3,56.4,29.61,NW,314,0.0,0.0,34,0.00,,,0.00,Wunderground v.1.15,2013-07-05 16:36:00,
2013-07-05 10:41:00,88.9,57.7,29.60,NW,317,0.0,0.0,35,0.00,,,0.00,Wunderground v.1.15,2013-07-05 16:41:00,
2013-07-05 10:46:00,89.4,56.5,29.60,North,5,0.0,0.0,33,0.00,,,0.00,Wunderground v.1.15,2013-07-05 16:46:00,
2013-07-05 10:51:00,89.8,56.0,29.60,NNW,338,0.0,0.0,32,0.00,,,0.00,Wunderground v.1.15,2013-07-05 16:51:00,
2013-07-05 10:56:00,90.2,57.2,29.60,North,355,0.0,0.0,33,0.00,,,0.00,Wunderground v.1.15,2013-07-05 16:56:00,
2013-07-05 11:06:00,91.2,57.2,29.59,NW,317,0.0,0.0,32,0.00,,,0.00,Wunderground v.1.15,2013-07-05 17:06:00,
2013-07-05 11:16:00,92.4,58.3,29.59,NNW,330,0.0,0.0,32,0.00,,,0.00,Wunderground v.1.15,2013-07-05 17:16:00,
2013-07-05 11:21:00,92.8,57.7,29.58,NNW,329,0.0,0.0,31,0.00,,,0.00,Wunderground v.1.15,2013-07-05 17:21:00,
2013-07-05 11:26:00,93.1,56.1,29.58,ENE,74,0.0,0.0,29,0.00,,,0.00,Wunderground v.1.15,2013-07-05 17:26:00,
2013-07-05 11:31:00,93.5,56.5,29.58,ENE,74,0.0,0.0,29,0.00,,,0.00,Wunderground v.1.15,2013-07-05 17:31:00,
2013-07-05 11:36:00,94.1,56.0,29.58,ENE,73,0.0,0.0,28,0.00,,,0.00,Wunderground v.1.15,2013-07-05 17:36:00,
2013-07-05 11:41:00,94.7,55.5,29.57,ENE,74,0.0,0.0,27,0.00,,,0.00,Wunderground v.1.15,2013-07-05 17:41:00,
2013-07-05 11:46:00,94.8,57.6,29.56,ENE,72,0.0,1.0,29,0.00,,,0.00,Wunderground v.1.15,2013-07-05 17:46:00,
2013-07-05 11:56:00,95.3,56.0,29.57,ENE,74,0.0,0.0,27,0.00,,,0.00,Wunderground v.1.15,2013-07-05 17:56:00,
2013-07-05 12:01:00,95.7,56.4,29.57,West,276,0.0,0.0,27,0.00,,,0.00,Wunderground v.1.15,2013-07-05 18:01:00,
2013-07-05 12:06:00,96.0,58.6,29.57,West,276,0.0,0.0,29,0.00,,,0.00,Wunderground v.1.15,2013-07-05 18:06:00,
2013-07-05 12:16:00,96.5,56.0,29.56,South,178,0.0,0.0,26,0.00,,,0.00,Wunderground v.1.15,2013-07-05 18:16:00,
2013-07-05 12:21:00,96.5,57.1,29.55,SSW,198,0.0,0.0,27,0.00,,,0.00,Wunderground v.1.15,2013-07-05 18:21:00,
2013-07-05 12:26:00,96.8,56.3,29.55,ESE,110,0.0,1.0,26,0.00,,,0.00,Wunderground v.1.15,2013-07-05 18:26:00,
2013-07-05 12:31:00,96.9,55.3,29.55,SSE,158,1.0,1.0,25,0.00,,,0.00,Wunderground v.1.15,2013-07-05 18:31:00,
2013-07-05 12:36:00,97.3,55.6,29.55,West,274,1.0,1.0,25,0.00,,,0.00,Wunderground v.1.15,2013-07-05 18:36:00,
2013-07-05 12:41:00,97.5,55.8,29.55,WSW,250,0.0,0.0,25,0.00,,,0.00,Wunderground v.1.15,2013-07-05 18:41:00,
2013-07-05 12:46:00,97.5,56.9,29.55,West,270,1.0,1.0,26,0.00,,,0.00,Wunderground v.1.15,2013-07-05 18:46:00,
2013-07-05 12:51:00,97.4,56.8,29.55,North,355,1.0,1.0,26,0.00,,,0.00,Wunderground v.1.15,2013-07-05 18:51:00,
2013-07-05 13:01:00,97.4,56.8,29.55,SE,137,0.0,2.0,26,0.00,,,0.00,Wunderground v.1.15,2013-07-05 19:01:00,
2013-07-05 13:06:00,97.3,56.7,29.55,ESE,111,1.0,2.0,26,0.00,,,0.00,Wunderground v.1.15,2013-07-05 19:06:00,
2013-07-05 13:16:00,97.6,55.9,29.54,NNE,19,0.0,1.0,25,0.00,,,0.00,Wunderground v.1.15,2013-07-05 19:16:00,
2013-07-05 13:21:00,98.1,55.1,29.53,East,86,0.0,0.0,24,0.00,,,0.00,Wunderground v.1.15,2013-07-05 19:21:00,
2013-07-05 13:26:00,98.1,55.1,29.54,SE,126,0.0,0.0,24,0.00,,,0.00,Wunderground v.1.15,2013-07-05 19:26:00,
2013-07-05 13:31:00,98.2,55.2,29.54,ESE,108,0.0,0.0,24,0.00,,,0.00,Wunderground v.1.15,2013-07-05 19:31:00,
2013-07-05 13:36:00,98.2,55.2,29.54,SSW,195,0.0,0.0,24,0.00,,,0.00,Wunderground v.1.15,2013-07-05 19:36:00,
2013-07-05 13:46:00,98.5,55.5,29.53,West,259,0.0,0.0,24,0.00,,,0.00,Wunderground v.1.15,2013-07-05 19:46:00,
2013-07-05 13:51:00,98.5,54.3,29.53,ESE,111,0.0,0.0,23,0.00,,,0.00,Wunderground v.1.15,2013-07-05 19:51:00,
2013-07-05 13:56:00,98.5,54.3,29.53,SE,132,1.0,1.0,23,0.00,,,0.00,Wunderground v.1.15,2013-07-05 19:56:00,
2013-07-05 14:01:00,98.5,54.3,29.55,ESE,123,1.0,1.0,23,0.00,,,0.00,Wunderground v.1.15,2013-07-05 20:01:00,
2013-07-05 14:06:00,98.9,54.6,29.53,ESE,121,0.0,1.0,23,0.00,,,0.00,Wunderground v.1.15,2013-07-05 20:06:00,
2013-07-05 14:16:00,99.5,57.4,29.52,ESE,115,0.0,0.0,25,0.00,,,0.00,Wunderground v.1.15,2013-07-05 20:16:00,
2013-07-05 14:21:00,99.6,55.2,29.52,WSW,253,0.0,1.0,23,0.00,,,0.00,Wunderground v.1.15,2013-07-05 20:21:00,
2013-07-05 14:26:00,99.9,56.7,29.51,West,264,0.0,1.0,24,0.00,,,0.00,Wunderground v.1.15,2013-07-05 20:26:00,
2013-07-05 14:31:00,100.0,55.6,29.52,SE,140,0.0,0.0,23,0.00,,,0.00,Wunderground v.1.15,2013-07-05 20:31:00,
2013-07-05 14:41:00,100.3,55.8,29.51,West,268,0.0,0.0,23,0.00,,,0.00,Wunderground v.1.15,2013-07-05 20:41:00,
2013-07-05 14:46:00,100.1,54.4,29.51,SE,136,0.0,0.0,22,0.00,,,0.00,Wunderground v.1.15,2013-07-05 20:46:00,
2013-07-05 14:51:00,100.1,54.4,29.51,NW,307,0.0,0.0,22,0.00,,,0.00,Wunderground v.1.15,2013-07-05 20:51:00,
2013-07-05 14:56:00,100.3,54.6,29.51,ESE,119,0.0,0.0,22,0.00,,,0.00,Wunderground v.1.15,2013-07-05 20:56:00,
2013-07-05 15:06:00,100.1,53.1,29.50,East,90,1.0,5.0,21,0.00,,,0.00,Wunderground v.1.15,2013-07-05 21:06:00,
2013-07-05 15:16:00,100.4,54.7,29.50,South,175,0.0,1.0,22,0.00,,,0.00,Wunderground v.1.15,2013-07-05 21:16:00,
2013-07-05 15:21:00,100.4,53.4,29.49,West,263,0.0,0.0,21,0.00,,,0.00,Wunderground v.1.15,2013-07-05 21:21:00,
2013-07-05 15:26:00,100.4,53.4,29.49,NW,318,0.0,0.0,21,0.00,,,0.00,Wunderground v.1.15,2013-07-05 21:26:00,
2013-07-05 15:31:00,100.4,54.7,29.49,NW,317,0.0,0.0,22,0.00,,,0.00,Wunderground v.1.15,2013-07-05 21:31:00,
2013-07-05 15:36:00,100.5,53.5,29.48,SW,234,0.0,0.0,21,0.00,,,0.00,Wunderground v.1.15,2013-07-05 21:36:00,
2013-07-05 15:41:00,100.5,53.5,29.48,WNW,287,0.0,0.0,21,0.00,,,0.00,Wunderground v.1.15,2013-07-05 21:41:00,
2013-07-05 15:46:00,100.3,53.3,29.48,SW,230,0.0,0.0,21,0.00,,,0.00,Wunderground v.1.15,2013-07-05 21:46:00,
2013-07-05 15:56:00,100.2,54.5,29.48,NNW,345,0.0,0.0,22,0.00,,,0.00,Wunderground v.1.15,2013-07-05 21:56:00,
2013-07-05 16:01:00,100.1,50.4,29.49,ESE,107,0.0,2.0,19,0.00,,,0.00,Wunderground v.1.15,2013-07-05 22:01:00,
2013-07-05 16:06:00,100.1,51.8,29.48,SSW,192,0.0,2.0,20,0.00,,,0.00,Wunderground v.1.15,2013-07-05 22:06:00,
2013-07-05 16:16:00,99.9,50.3,29.48,ENE,68,0.0,0.0,19,0.00,,,0.00,Wunderground v.1.15,2013-07-05 22:16:00,
2013-07-05 16:21:00,99.8,50.2,29.48,SW,233,0.0,2.0,19,0.00,,,0.00,Wunderground v.1.15,2013-07-05 22:21:00,
2013-07-05 16:26:00,99.6,50.0,29.47,SE,146,0.0,2.0,19,0.00,,,0.00,Wunderground v.1.15,2013-07-05 22:26:00,
2013-07-05 16:31:00,99.6,51.4,29.47,SE,126,0.0,0.0,20,0.00,,,0.00,Wunderground v.1.15,2013-07-05 22:31:00,
2013-07-05 16:36:00,99.6,52.7,29.46,WNW,296,0.0,0.0,21,0.00,,,0.00,Wunderground v.1.15,2013-07-05 22:36:00,
2013-07-05 16:41:00,99.6,52.7,29.46,ESE,113,0.0,2.0,21,0.00,,,0.00,Wunderground v.1.15,2013-07-05 22:41:00,
2013-07-05 16:46:00,99.5,51.3,29.46,SE,125,0.0,2.0,20,0.00,,,0.00,Wunderground v.1.15,2013-07-05 22:46:00,
2013-07-05 16:51:00,99.4,49.9,29.46,ESE,111,0.0,0.0,19,0.00,,,0.00,Wunderground v.1.15,2013-07-05 22:51:00,
2013-07-05 16:56:00,99.3,51.2,29.46,SE,132,0.0,0.0,20,0.00,,,0.00,Wunderground v.1.15,2013-07-05 22:56:00,
2013-07-05 17:01:00,99.3,49.8,29.46,SE,132,0.0,0.0,19,0.00,,,0.00,Wunderground v.1.15,2013-07-05 23:01:00,
2013-07-05 17:11:00,99.4,48.4,29.46,SE,140,0.0,0.0,18,0.00,,,0.00,Wunderground v.1.15,2013-07-05 23:11:00,
2013-07-05 17:16:00,99.3,49.8,29.46,WNW,301,0.0,0.0,19,0.00,,,0.00,Wunderground v.1.15,2013-07-05 23:16:00,
2013-07-05 17:21:00,99.2,49.7,29.46,West,265,0.0,0.0,19,0.00,,,0.00,Wunderground v.1.15,2013-07-05 23:21:00,
2013-07-05 17:31:00,98.7,46.3,29.47,SE,135,0.0,0.0,17,0.00,,,0.00,Wunderground v.1.15,2013-07-05 23:31:00,
2013-07-05 17:36:00,98.5,47.7,29.46,SE,136,0.0,1.0,18,0.00,,,0.00,Wunderground v.1.15,2013-07-05 23:36:00,
2013-07-05 17:41:00,98.5,49.1,29.45,SW,234,0.0,0.0,19,0.00,,,0.00,Wunderground v.1.15,2013-07-05 23:41:00,
2013-07-05 17:46:00,98.3,49.0,29.46,SE,138,0.0,0.0,19,0.00,,,0.00,Wunderground v.1.15,2013-07-05 23:46:00,
2013-07-05 17:51:00,98.3,49.0,29.46,SE,125,0.0,0.0,19,0.00,,,0.00,Wunderground v.1.15,2013-07-05 23:51:00,
2013-07-05 17:56:00,98.2,48.9,29.46,ESE,115,0.0,0.0,19,0.00,,,0.00,Wunderground v.1.15,2013-07-05 23:56:00,
2013-07-05 18:01:00,98.0,47.3,29.47,SW,223,0.0,0.0,18,0.00,,,0.00,Wunderground v.1.15,2013-07-06 00:01:00,
2013-07-05 18:06:00,97.9,45.7,29.47,SW,221,0.0,0.0,17,0.00,,,0.00,Wunderground v.1.15,2013-07-06 00:06:00,
2013-07-05 18:16:00,97.8,48.6,29.47,SSW,192,0.0,0.0,19,0.00,,,0.00,Wunderground v.1.15,2013-07-06 00:16:00,
2013-07-05 18:26:00,97.7,48.5,29.47,SSE,149,0.0,0.0,19,0.00,,,0.00,Wunderground v.1.15,2013-07-06 00:26:00,
2013-07-05 18:31:00,97.5,48.3,29.48,SSE,165,0.0,0.0,19,0.00,,,0.00,Wunderground v.1.15,2013-07-06 00:31:00,
2013-07-05 18:36:00,97.5,49.7,29.48,SSE,165,0.0,0.0,20,0.00,,,0.00,Wunderground v.1.15,2013-07-06 00:36:00,
2013-07-05 18:46:00,97.3,49.5,29.49,SSW,205,0.0,0.0,20,0.00,,,0.00,Wunderground v.1.15,2013-07-06 00:46:00,
2013-07-05 18:51:00,97.1,48.0,29.49,SSW,194,0.0,0.0,19,0.00,,,0.00,Wunderground v.1.15,2013-07-06 00:51:00,
2013-07-05 18:56:00,96.7,47.7,29.49,SE,142,0.0,0.0,19,0.00,,,0.00,Wunderground v.1.15,2013-07-06 00:56:00,
2013-07-05 19:01:00,96.4,47.4,29.49,SE,142,0.0,0.0,19,0.00,,,0.00,Wunderground v.1.15,2013-07-06 01:01:00,
2013-07-05 19:06:00,96.2,47.3,29.47,SE,142,0.0,0.0,19,0.00,,,0.00,Wunderground v.1.15,2013-07-06 01:06:00,
2013-07-05 19:16:00,95.5,48.0,29.47,East,88,0.0,0.0,20,0.00,,,0.00,Wunderground v.1.15,2013-07-06 01:16:00,
2013-07-05 19:21:00,95.2,47.8,29.48,East,88,0.0,0.0,20,0.00,,,0.00,Wunderground v.1.15,2013-07-06 01:21:00,
2013-07-05 19:26:00,94.9,48.9,29.48,East,88,0.0,0.0,21,0.00,,,0.00,Wunderground v.1.15,2013-07-06 01:26:00,
2013-07-05 19:31:00,94.7,48.7,29.48,East,88,0.0,0.0,21,0.00,,,0.00,Wunderground v.1.15,2013-07-06 01:31:00,
2013-07-05 19:41:00,94.1,48.2,29.48,East,88,0.0,0.0,21,0.00,,,0.00,Wunderground v.1.15,2013-07-06 01:41:00,
2013-07-05 19:51:00,93.6,47.8,29.48,East,88,0.0,0.0,21,0.00,,,0.00,Wunderground v.1.15,2013-07-06 01:51:00,
2013-07-05 19:56:00,93.3,48.8,29.49,East,88,0.0,0.0,22,0.00,,,0.00,Wunderground v.1.15,2013-07-06 01:56:00,
2013-07-05 20:01:00,93.1,48.6,29.49,East,88,0.0,0.0,22,0.00,,,0.00,Wunderground v.1.15,2013-07-06 02:01:00,
2013-07-05 20:06:00,92.8,49.6,29.46,East,88,0.0,0.0,23,0.00,,,0.00,Wunderground v.1.15,2013-07-06 02:06:00,
2013-07-05 20:11:00,92.4,48.0,29.46,East,88,0.0,0.0,22,0.00,,,0.00,Wunderground v.1.15,2013-07-06 02:11:00,
2013-07-05 20:21:00,91.8,46.3,29.48,East,88,0.0,0.0,21,0.00,,,0.00,Wunderground v.1.15,2013-07-06 02:21:00,
2013-07-05 20:26:00,91.5,47.3,29.47,East,88,0.0,0.0,22,0.00,,,0.00,Wunderground v.1.15,2013-07-06 02:26:00,
2013-07-05 20:31:00,91.2,48.2,29.47,East,88,0.0,0.0,23,0.00,,,0.00,Wunderground v.1.15,2013-07-06 02:31:00,
2013-07-05 20:36:00,90.9,48.0,29.47,East,88,0.0,0.0,23,0.00,,,0.00,Wunderground v.1.15,2013-07-06 02:36:00,
2013-07-05 20:41:00,90.6,50.0,29.47,East,88,0.0,0.0,25,0.00,,,0.00,Wunderground v.1.15,2013-07-06 02:41:00,
2013-07-05 20:51:00,89.8,52.3,29.49,East,88,0.0,0.0,28,0.00,,,0.00,Wunderground v.1.15,2013-07-06 02:51:00,
2013-07-05 20:56:00,89.4,53.0,29.48,East,86,0.0,0.0,29,0.00,,,0.00,Wunderground v.1.15,2013-07-06 02:56:00,
2013-07-05 21:01:00,88.9,52.5,29.47,NW,321,0.0,0.0,29,0.00,,,0.00,Wunderground v.1.15,2013-07-06 03:01:00,
2013-07-05 21:06:00,88.3,52.0,29.48,NW,322,0.0,3.0,29,0.00,,,0.00,Wunderground v.1.15,2013-07-06 03:06:00,
2013-07-05 21:16:00,87.5,52.2,29.49,NW,317,0.0,0.0,30,0.00,,,0.00,Wunderground v.1.15,2013-07-06 03:16:00,
2013-07-05 21:21:00,87.1,52.8,29.49,NW,321,0.0,0.0,31,0.00,,,0.00,Wunderground v.1.15,2013-07-06 03:21:00,
2013-07-05 21:31:00,86.5,52.3,29.50,NNW,346,0.0,0.0,31,0.00,,,0.00,Wunderground v.1.15,2013-07-06 03:31:00,
2013-07-05 21:36:00,86.3,53.0,29.51,North,360,0.0,0.0,32,0.00,,,0.00,Wunderground v.1.15,2013-07-06 03:36:00,
2013-07-05 21:41:00,86.2,52.9,29.51,NNW,333,0.0,0.0,32,0.00,,,0.00,Wunderground v.1.15,2013-07-06 03:41:00,
2013-07-05 21:46:00,86.1,52.8,29.51,NNW,339,0.0,0.0,32,0.00,,,0.00,Wunderground v.1.15,2013-07-06 03:46:00,
2013-07-05 21:56:00,85.9,53.5,29.51,NNW,336,0.0,0.0,33,0.00,,,0.00,Wunderground v.1.15,2013-07-06 03:56:00,
2013-07-05 22:01:00,85.7,53.3,29.51,North,360,0.0,0.0,33,0.00,,,0.00,Wunderground v.1.15,2013-07-06 04:01:00,
2013-07-05 22:06:00,85.5,53.1,29.49,North,355,0.0,0.0,33,0.00,,,0.00,Wunderground v.1.15,2013-07-06 04:06:00,
2013-07-05 22:16:00,85.2,53.7,29.51,North,355,0.0,0.0,34,0.00,,,0.00,Wunderground v.1.15,2013-07-06 04:16:00,
2013-07-05 22:21:00,85.1,53.6,29.51,North,355,0.0,0.0,34,0.00,,,0.00,Wunderground v.1.15,2013-07-06 04:21:00,
2013-07-05 22:31:00,84.7,53.2,29.52,North,355,0.0,0.0,34,0.00,,,0.00,Wunderground v.1.15,2013-07-06 04:31:00,
2013-07-05 22:36:00,84.6,53.1,29.52,North,355,0.0,0.0,34,0.00,,,0.00,Wunderground v.1.15,2013-07-06 04:36:00,
2013-07-05 22:46:00,84.2,52.8,29.53,North,355,0.0,0.0,34,0.00,,,0.00,Wunderground v.1.15,2013-07-06 04:46:00,
2013-07-05 22:51:00,84.0,52.6,29.53,North,355,0.0,0.0,34,0.00,,,0.00,Wunderground v.1.15,2013-07-06 04:51:00,
2013-07-05 22:56:00,83.8,52.4,29.53,North,355,0.0,0.0,34,0.00,,,0.00,Wunderground v.1.15,2013-07-06 04:56:00,
2013-07-05 23:01:00,83.7,52.3,29.54,North,355,0.0,0.0,34,0.00,,,0.00,Wunderground v.1.15,2013-07-06 05:01:00,
2013-07-05 23:11:00,83.6,53.1,29.51,WNW,285,0.0,0.0,35,0.00,,,0.00,Wunderground v.1.15,2013-07-06 05:11:00,
2013-07-05 23:16:00,83.6,53.1,29.51,WNW,287,0.0,0.0,35,0.00,,,0.00,Wunderground v.1.15,2013-07-06 05:16:00,
2013-07-05 23:21:00,83.6,53.1,29.51,WNW,287,0.0,0.0,35,0.00,,,0.00,Wunderground v.1.15,2013-07-06 05:21:00,
2013-07-05 23:26:00,83.6,53.1,29.51,WNW,287,0.0,0.0,35,0.00,,,0.00,Wunderground v.1.15,2013-07-06 05:26:00,
2013-07-05 23:36:00,83.4,52.9,29.52,WNW,287,0.0,0.0,35,0.00,,,0.00,Wunderground v.1.15,2013-07-06 05:36:00,
2013-07-05 23:41:00,83.4,53.6,29.52,WNW,287,0.0,0.0,36,0.00,,,0.00,Wunderground v.1.15,2013-07-06 05:41:00,
2013-07-05 23:46:00,83.2,53.5,29.52,WNW,287,0.0,0.0,36,0.00,,,0.00,Wunderground v.1.15,2013-07-06 05:46:00,
2013-07-05 23:51:00,83.0,53.3,29.52,WNW,287,0.0,0.0,36,0.00,,,0.00,Wunderground v.1.15,2013-07-06 05:51:00,